createdAt,value
2022-11-29T00:00:03.074Z,94688
2022-11-29T00:03:26.038Z,94686
2022-11-29T00:06:51.192Z,94683
2022-11-29T00:10:16.418Z,94685
2022-11-29T00:13:41.659Z,94682
2022-11-29T00:17:06.847Z,94684
2022-11-29T00:20:32.075Z,94682
2022-11-29T00:23:57.285Z,94680
2022-11-29T00:27:22.485Z,94679
2022-11-29T00:30:47.774Z,94676
2022-11-29T00:34:12.948Z,94678
2022-11-29T00:37:38.177Z,94670
2022-11-29T00:41:03.397Z,94669
2022-11-29T00:44:28.624Z,94672
2022-11-29T00:47:53.882Z,94674
2022-11-29T00:51:19.068Z,94673
2022-11-29T00:54:44.538Z,94671
2022-11-29T00:58:09.503Z,94675
2022-11-29T01:01:34.725Z,94671
2022-11-29T01:04:59.968Z,94673
2022-11-29T01:08:25.159Z,94672
2022-11-29T01:11:50.385Z,94674
2022-11-29T01:15:15.602Z,94682
2022-11-29T01:18:40.822Z,94682
2022-11-29T01:22:06.054Z,94684
2022-11-29T01:25:31.269Z,94684
2022-11-29T01:28:56.482Z,94681
2022-11-29T01:32:21.689Z,94680
2022-11-29T01:35:46.915Z,94681
2022-11-29T01:39:12.162Z,94684
2022-11-29T01:42:37.349Z,94691
2022-11-29T01:46:02.619Z,94694
2022-11-29T01:49:27.777Z,94693
2022-11-29T01:52:52.985Z,94695
2022-11-29T01:56:18.248Z,94694
2022-11-29T01:59:43.411Z,94682
2022-11-29T02:03:08.628Z,94686
2022-11-29T02:06:33.831Z,94688
2022-11-29T02:09:59.038Z,94687
2022-11-29T02:13:24.327Z,94683
2022-11-29T02:16:53.597Z,94681
2022-11-29T02:20:14.741Z,94682
2022-11-29T02:23:39.952Z,94683
2022-11-29T02:27:05.151Z,94679
2022-11-29T02:30:30.476Z,94682
2022-11-29T02:33:55.582Z,94682
2022-11-29T02:37:20.794Z,94683
2022-11-29T02:40:46.023Z,94682
2022-11-29T02:44:11.243Z,94687
2022-11-29T02:47:36.497Z,94684
2022-11-29T02:51:01.676Z,94691
2022-11-29T02:54:26.914Z,94688
2022-11-29T02:57:52.145Z,94679
2022-11-29T03:01:17.399Z,94691
2022-11-29T03:04:42.710Z,94691
2022-11-29T03:08:07.822Z,94696
2022-11-29T03:11:33.017Z,94705
2022-11-29T03:14:58.225Z,94696
2022-11-29T03:18:23.436Z,94704
2022-11-29T03:21:48.652Z,94701
2022-11-29T03:25:13.846Z,94694
2022-11-29T03:28:39.046Z,94702
2022-11-29T03:32:04.261Z,94701
2022-11-29T03:35:29.466Z,94704
2022-11-29T03:38:54.727Z,94705
2022-11-29T03:42:19.922Z,94708
2022-11-29T03:45:45.124Z,94711
2022-11-29T03:49:10.334Z,94710
2022-11-29T03:52:35.542Z,94707
2022-11-29T03:56:00.787Z,94715
2022-11-29T03:59:25.975Z,94710
2022-11-29T04:02:51.240Z,94715
2022-11-29T04:06:16.399Z,94717
2022-11-29T04:09:41.628Z,94711
2022-11-29T04:13:06.866Z,94717
2022-11-29T04:16:32.049Z,94719
2022-11-29T04:19:57.268Z,94719
2022-11-29T04:23:22.475Z,94713
2022-11-29T04:26:47.675Z,94720
2022-11-29T04:30:12.915Z,94721
2022-11-29T04:33:38.153Z,94725
2022-11-29T04:37:03.354Z,94727
2022-11-29T04:40:28.564Z,94729
2022-11-29T04:43:53.779Z,94735
2022-11-29T04:47:19.019Z,94737
2022-11-29T04:50:44.189Z,94740
2022-11-29T04:54:09.410Z,94733
2022-11-29T04:57:34.593Z,94735
2022-11-29T05:00:59.810Z,94740
2022-11-29T05:04:25.071Z,94746
2022-11-29T05:07:50.381Z,94748
2022-11-29T05:11:16.492Z,94749
2022-11-29T05:14:44.461Z,94752
2022-11-29T05:18:09.459Z,94752
2022-11-29T05:21:35.137Z,94752
2022-11-29T05:25:00.339Z,94754
2022-11-29T05:28:25.568Z,94758
2022-11-29T05:31:50.814Z,94763
2022-11-29T05:35:16.026Z,94762
2022-11-29T05:38:41.266Z,94761
2022-11-29T05:42:06.436Z,94764
2022-11-29T05:45:31.655Z,94770
2022-11-29T05:48:56.868Z,94773
2022-11-29T05:52:22.076Z,94772
2022-11-29T05:55:47.340Z,94776
2022-11-29T05:59:12.580Z,94781
2022-11-29T06:02:37.832Z,94780
2022-11-29T06:06:02.993Z,94785
2022-11-29T06:09:28.192Z,94792
2022-11-29T06:12:53.417Z,94789
2022-11-29T06:16:18.654Z,94788
2022-11-29T06:19:43.833Z,94795
2022-11-29T06:23:09.050Z,94792
2022-11-29T06:26:34.254Z,94794
2022-11-29T06:29:59.464Z,94790
2022-11-29T06:33:24.669Z,94794
2022-11-29T06:36:49.925Z,94793
2022-11-29T06:40:15.116Z,94797
2022-11-29T06:43:40.329Z,94801
2022-11-29T06:47:05.567Z,94804
2022-11-29T06:50:30.755Z,94804
2022-11-29T06:53:55.970Z,94809
2022-11-29T06:57:21.186Z,94816
2022-11-29T07:00:46.393Z,94819
2022-11-29T07:04:11.628Z,94819
2022-11-29T07:07:36.872Z,94822
2022-11-29T07:11:02.022Z,94827
2022-11-29T07:14:27.232Z,94830
2022-11-29T07:17:52.446Z,94832
2022-11-29T07:21:17.681Z,94831
2022-11-29T07:24:43.086Z,94831
2022-11-29T07:28:08.088Z,94835
2022-11-29T07:31:33.330Z,94839
2022-11-29T07:34:58.485Z,94844
2022-11-29T07:38:23.708Z,94849
2022-11-29T07:41:48.855Z,94846
2022-11-29T07:45:14.050Z,94848
2022-11-29T07:48:39.237Z,94851
2022-11-29T07:52:04.421Z,94845
2022-11-29T07:55:29.703Z,94850
2022-11-29T07:58:54.911Z,94847
2022-11-29T08:02:20.084Z,94846
2022-11-29T08:05:45.231Z,94851
2022-11-29T08:09:10.422Z,94852
2022-11-29T08:12:35.641Z,94854
2022-11-29T08:16:00.914Z,94857
2022-11-29T08:19:26.053Z,94854
2022-11-29T08:22:51.256Z,94860
2022-11-29T08:26:16.503Z,94859
2022-11-29T08:29:41.736Z,94860
2022-11-29T08:33:06.920Z,94859
2022-11-29T08:36:32.130Z,94868
2022-11-29T08:39:57.344Z,94869
2022-11-29T08:43:22.541Z,94874
2022-11-29T08:46:47.752Z,94873
2022-11-29T08:50:12.926Z,94878
2022-11-29T08:53:38.120Z,94887
2022-11-29T08:57:37.783Z,94883
2022-11-29T09:00:28.544Z,94890
2022-11-29T09:03:53.871Z,94891
2022-11-29T09:07:18.971Z,94884
2022-11-29T09:10:44.159Z,94891
2022-11-29T09:14:09.356Z,94892
2022-11-29T09:17:34.578Z,94898
2022-11-29T09:20:59.819Z,94898
2022-11-29T09:24:25.024Z,94904
2022-11-29T09:27:50.210Z,94903
2022-11-29T09:31:15.423Z,94905
2022-11-29T09:34:40.614Z,94908
2022-11-29T09:38:05.836Z,94911
2022-11-29T09:41:31.010Z,94911
2022-11-29T09:44:56.222Z,94913
2022-11-29T09:48:21.442Z,94913
2022-11-29T09:51:46.643Z,94907
2022-11-29T09:55:11.892Z,94914
2022-11-29T09:58:37.069Z,94909
2022-11-29T10:02:02.305Z,94916
2022-11-29T10:05:27.507Z,94914
2022-11-29T10:08:52.722Z,94915
2022-11-29T10:12:17.955Z,94919
2022-11-29T10:15:43.161Z,94920
2022-11-29T10:19:08.355Z,94918
2022-11-29T10:22:33.567Z,94923
2022-11-29T10:25:58.816Z,94923
2022-11-29T10:29:24.076Z,94927
2022-11-29T10:32:49.337Z,94922
2022-11-29T10:36:14.535Z,94924
2022-11-29T10:39:39.758Z,94926
2022-11-29T10:43:04.978Z,94928
2022-11-29T10:46:30.282Z,94926
2022-11-29T10:49:55.433Z,94920
2022-11-29T10:53:20.665Z,94920
2022-11-29T10:56:45.870Z,94923
2022-11-29T11:00:11.083Z,94924
2022-11-29T11:03:36.325Z,94923
2022-11-29T11:07:01.625Z,94922
2022-11-29T11:10:26.757Z,94925
2022-11-29T11:13:51.977Z,94929
2022-11-29T11:17:17.189Z,94927
2022-11-29T11:20:42.438Z,94929
2022-11-29T11:24:07.603Z,94930
2022-11-29T11:27:32.816Z,94933
2022-11-29T11:30:58.094Z,94926
2022-11-29T11:34:23.293Z,94929
2022-11-29T11:37:48.550Z,94929
2022-11-29T11:41:13.757Z,94938
2022-11-29T11:44:47.167Z,94941
2022-11-29T11:48:04.229Z,94938
2022-11-29T11:51:29.443Z,94940
2022-11-29T11:54:54.717Z,94935
2022-11-29T11:58:19.893Z,94942
2022-11-29T12:01:45.111Z,94948
2022-11-29T12:05:10.376Z,94949
2022-11-29T12:08:35.712Z,94948
2022-11-29T12:12:00.988Z,94952
2022-11-29T12:15:26.088Z,94949
2022-11-29T12:18:51.318Z,94953
2022-11-29T12:22:16.535Z,94957
2022-11-29T12:25:41.811Z,94957
2022-11-29T12:29:07.032Z,94957
2022-11-29T12:32:32.215Z,94957
2022-11-29T12:35:57.452Z,94955
2022-11-29T12:39:22.675Z,94958
2022-11-29T12:42:47.897Z,94968
2022-11-29T12:46:13.153Z,94961
2022-11-29T12:49:38.300Z,94963
2022-11-29T12:53:03.511Z,94966
2022-11-29T12:56:28.727Z,94971
2022-11-29T12:59:53.962Z,94971
2022-11-29T13:03:19.261Z,94972
2022-11-29T13:06:44.431Z,94980
2022-11-29T13:10:13.728Z,94984
2022-11-29T13:13:34.875Z,94981
2022-11-29T13:17:00.080Z,94984
2022-11-29T13:20:25.337Z,94990
2022-11-29T13:24:10.822Z,94990
2022-11-29T13:27:15.728Z,94989
2022-11-29T13:30:40.957Z,94986
2022-11-29T13:34:06.187Z,94989
2022-11-29T13:37:31.415Z,94985
2022-11-29T13:40:56.614Z,94986
2022-11-29T13:44:21.830Z,94979
2022-11-29T13:47:47.067Z,94983
2022-11-29T13:51:12.313Z,94983
2022-11-29T13:54:37.566Z,94983
2022-11-29T13:58:18.692Z,94989
2022-11-29T14:01:28.037Z,94991
2022-11-29T14:04:53.221Z,94996
2022-11-29T14:08:18.470Z,94999
2022-11-29T14:11:43.709Z,95001
2022-11-29T14:15:08.917Z,95000
2022-11-29T14:18:34.126Z,95004
2022-11-29T14:21:59.358Z,95004
2022-11-29T14:25:54.229Z,95003
2022-11-29T14:28:49.871Z,95006
2022-11-29T15:06:12.600Z,95026
2022-11-29T15:09:37.894Z,95031
2022-11-29T15:13:03.206Z,95031
2022-11-29T15:16:28.590Z,95040
2022-11-29T15:19:53.897Z,95028
2022-11-29T15:23:19.240Z,95032
2022-11-29T15:26:44.501Z,95040
2022-11-29T15:30:09.851Z,95041
2022-11-29T15:33:35.191Z,95040
2022-11-29T15:37:00.443Z,95048
2022-11-29T15:40:25.815Z,95050
2022-11-29T15:43:51.187Z,95051
2022-11-29T15:47:16.480Z,95053
2022-11-29T15:50:41.823Z,95060
2022-11-29T15:54:12.580Z,95064
2022-11-29T15:57:32.414Z,95068
2022-11-29T16:00:57.744Z,95068
2022-11-29T16:04:23.059Z,95067
2022-11-29T16:07:48.412Z,95063
2022-11-29T16:11:13.719Z,95067
2022-11-29T16:14:39.112Z,95071
2022-11-29T16:18:04.417Z,95073
2022-11-29T16:21:29.747Z,95075
2022-11-29T16:24:55.089Z,95076
2022-11-29T16:28:20.462Z,95073
2022-11-29T16:31:45.910Z,95078
2022-11-29T16:35:11.210Z,95082
2022-11-29T16:38:36.540Z,95080
2022-11-29T16:42:02.323Z,95092
2022-11-29T16:45:27.258Z,95096
2022-11-29T16:48:52.507Z,95093
2022-11-29T16:52:17.822Z,95101
2022-11-29T16:55:43.111Z,95100
2022-11-29T16:59:16.891Z,95100
2022-11-29T17:02:33.756Z,95102
2022-11-29T17:05:58.995Z,95108
2022-11-29T17:09:24.199Z,95105
2022-11-29T17:12:49.455Z,95109
2022-11-29T17:16:14.747Z,95116
2022-11-29T17:19:40.137Z,95116
2022-11-29T17:23:05.474Z,95124
2022-11-29T17:26:30.729Z,95118
2022-11-29T17:29:55.984Z,95120
2022-11-29T17:33:21.263Z,95117
2022-11-29T17:36:46.550Z,95122
2022-11-29T17:40:11.861Z,95123
2022-11-29T17:43:37.072Z,95129
2022-11-29T17:47:02.352Z,95127
2022-11-29T17:50:27.630Z,95128
2022-11-29T17:53:52.887Z,95125
2022-11-29T17:57:18.210Z,95132
2022-11-29T18:00:43.472Z,95134
2022-11-29T18:04:08.786Z,95131
2022-11-29T18:07:34.038Z,95135
2022-11-29T18:10:59.290Z,95132
2022-11-29T18:14:25.410Z,95132
2022-11-29T18:17:50.667Z,95135
2022-11-29T18:21:15.988Z,95132
2022-11-29T18:24:41.321Z,95131
2022-11-29T18:28:06.619Z,95133
2022-11-29T18:31:31.928Z,95135
2022-11-29T18:34:57.190Z,95136
2022-11-29T18:38:22.511Z,95142
2022-11-29T18:41:47.828Z,95141
2022-11-29T18:45:13.091Z,95153
2022-11-29T18:48:38.427Z,95153
2022-11-29T18:52:03.711Z,95157
2022-11-29T18:55:28.942Z,95156
2022-11-29T18:58:58.125Z,95158
2022-11-29T19:02:19.441Z,95162
2022-11-29T19:05:44.701Z,95164
2022-11-29T19:09:09.937Z,95159
2022-11-29T19:12:35.181Z,95157
2022-11-29T19:16:00.453Z,95166
2022-11-29T19:19:25.728Z,95169
2022-11-29T19:22:52.948Z,95173
2022-11-29T19:26:16.223Z,95173
2022-11-29T19:29:41.497Z,95170
2022-11-29T19:33:06.787Z,95170
2022-11-29T19:36:32.034Z,95171
2022-11-29T19:39:57.372Z,95174
2022-11-29T19:43:22.652Z,95172
2022-11-29T19:46:48.628Z,95172
2022-11-29T19:50:13.743Z,95171
2022-11-29T19:53:39.017Z,95176
2022-11-29T19:57:04.270Z,95172
2022-11-29T20:00:29.492Z,95179
2022-11-29T20:03:54.764Z,95179
2022-11-29T20:07:20.040Z,95179
2022-11-29T20:10:45.288Z,95180
2022-11-29T20:14:10.581Z,95178
2022-11-29T20:17:35.861Z,95176
2022-11-29T20:21:01.106Z,95180
2022-11-29T20:24:26.343Z,95188
2022-11-29T20:27:51.564Z,95192
2022-11-29T20:31:16.932Z,95197
2022-11-29T20:34:42.133Z,95193
2022-11-29T20:38:07.390Z,95203
2022-11-29T20:41:32.617Z,95205
2022-11-29T20:44:57.846Z,95200
2022-11-29T20:48:23.102Z,95204
2022-11-29T20:51:48.300Z,95202
2022-11-29T20:55:13.564Z,95208
2022-11-29T20:58:38.788Z,95206
2022-11-29T21:02:04.063Z,95207
2022-11-29T21:05:29.302Z,95211
2022-11-29T21:08:54.521Z,95209
2022-11-29T21:12:19.728Z,95206
2022-11-29T21:15:44.997Z,95207
2022-11-29T21:19:10.195Z,95216
2022-11-29T21:22:35.414Z,95217
2022-11-29T21:26:00.594Z,95216
2022-11-29T21:29:25.812Z,95213
2022-11-29T21:32:51.022Z,95213
2022-11-29T21:36:16.257Z,95213
2022-11-29T21:39:41.496Z,95222
2022-11-29T21:43:06.698Z,95225
2022-11-29T21:46:31.950Z,95230
2022-11-29T21:49:57.140Z,95236
2022-11-29T21:53:22.368Z,95237
2022-11-29T21:56:47.630Z,95240
2022-11-29T22:00:12.823Z,95243
2022-11-29T22:03:38.048Z,95241
2022-11-29T22:07:03.294Z,95243
2022-11-29T22:10:28.547Z,95247
2022-11-29T22:13:53.787Z,95236
2022-11-29T22:17:18.976Z,95227
2022-11-29T22:20:44.212Z,95225
2022-11-29T22:24:09.423Z,95222
2022-11-29T22:27:34.656Z,95222
2022-11-29T22:30:59.901Z,95221
2022-11-29T22:34:25.102Z,95221
2022-11-29T22:37:50.297Z,95228
2022-11-29T22:41:15.533Z,95226
2022-11-29T22:44:40.775Z,95231
2022-11-29T22:48:06.025Z,95235
2022-11-29T22:51:31.208Z,95236
2022-11-29T22:54:59.963Z,95241
2022-11-29T22:58:21.667Z,95248
2022-11-29T23:01:46.896Z,95247
2022-11-29T23:05:12.116Z,95245
2022-11-29T23:08:37.285Z,95246
2022-11-29T23:12:02.484Z,95248
2022-11-29T23:15:27.770Z,95252
2022-11-29T23:18:53.005Z,95252
2022-11-29T23:22:18.243Z,95253
2022-11-29T23:25:43.426Z,95249
2022-11-29T23:29:08.654Z,95249
2022-11-29T23:32:33.876Z,95252
2022-11-29T23:35:59.114Z,95250
2022-11-29T23:39:24.368Z,95261
2022-11-29T23:42:49.558Z,95259
2022-11-29T23:46:14.885Z,95250
2022-11-29T23:49:40.022Z,95255
2022-11-29T23:53:05.228Z,95246
2022-11-29T23:56:30.481Z,95242
2022-11-29T23:59:55.655Z,95237
